Wetterdaten: Woche 10.09.07 - 16.09.07 (KW37)
Datum Zeit Temperatur Luftfeuchte Luftdruck Niederschlag Wind Richtung Sonnenschein Solar Taupunkt Windchill Windben
10.09.2007 00:00 11.9 C 88 % 1020.2 hPa 0.0 l/m 1.5 km/h (1 Bft) W-NW 0.00 h 0 W/m 10.1 C 11.9 C 3.0 km/h (1 Bft)
10.09.2007 01:00 11.2 C 88 % 1019.8 hPa 0.0 l/m 0.0 km/h (0 Bft) N-NW 0.00 h 0 W/m 9.3 C 11.2 C 0.6 km/h (0 Bft)
10.09.2007 02:00 10.3 C 92 % 1019.9 hPa 0.0 l/m 0.0 km/h (0 Bft) N-NW 0.00 h 0 W/m 9.1 C 10.3 C 0.1 km/h (0 Bft)
10.09.2007 03:00 9.4 C 94 % 1019.7 hPa 0.0 l/m 0.2 km/h (0 Bft) N-NW 0.00 h 0 W/m 8.5 C 9.4 C 0.5 km/h (0 Bft)
10.09.2007 04:00 8.7 C 95 % 1019.7 hPa 0.0 l/m 0.2 km/h (0 Bft) N-NO 0.00 h 0 W/m 8.0 C 8.7 C 0.6 km/h (0 Bft)
10.09.2007 05:00 8.0 C 97 % 1019.4 hPa 0.0 l/m 1.3 km/h (1 Bft) O-NO 0.00 h 0 W/m 7.5 C 8.0 C 2.6 km/h (1 Bft)
10.09.2007 06:00 7.8 C 97 % 1019.1 hPa 0.0 l/m 0.2 km/h (0 Bft) O-NO 0.00 h 0 W/m 7.3 C 7.8 C 0.9 km/h (0 Bft)
10.09.2007 07:00 7.9 C 97 % 1019.3 hPa 0.2 l/m 0.8 km/h (0 Bft) O-NO 0.35 h 39 W/m 7.5 C 7.9 C 1.6 km/h (1 Bft)
10.09.2007 08:00 9.5 C 94 % 1019.4 hPa 0.0 l/m 0.0 km/h (0 Bft) O-NO 0.88 h 174 W/m 8.6 C 9.5 C 0.4 km/h (0 Bft)
10.09.2007 09:00 11.1 C 88 % 1019.1 hPa 0.0 l/m 0.7 km/h (0 Bft) O-NO 0.42 h 238 W/m 9.2 C 11.1 C 1.9 km/h (1 Bft)
10.09.2007 10:00 13.6 C 82 % 1019.0 hPa 0.0 l/m 0.8 km/h (0 Bft) SO 0.92 h 442 W/m 10.5 C 13.6 C 2.4 km/h (1 Bft)
10.09.2007 11:00 16.7 C 74 % 1018.3 hPa 0.0 l/m 2.9 km/h (1 Bft) S-SO 1.00 h 630 W/m 11.9 C 16.7 C 5.9 km/h (2 Bft)
10.09.2007 12:00 17.5 C 66 % 1017.7 hPa 0.0 l/m 9.5 km/h (2 Bft) W 0.75 h 570 W/m 11.1 C 17.5 C 14.8 km/h (3 Bft)
10.09.2007 13:00 18.3 C 62 % 1017.2 hPa 0.0 l/m 13.5 km/h (3 Bft) W 0.88 h 571 W/m 10.9 C 18.3 C 20.5 km/h (4 Bft)
10.09.2007 14:00 17.9 C 65 % 1017.0 hPa 0.0 l/m 10.0 km/h (2 Bft) W 0.03 h 328 W/m 11.1 C 17.9 C 15.6 km/h (3 Bft)
10.09.2007 15:00 17.7 C 63 % 1016.3 hPa 0.0 l/m 11.5 km/h (2 Bft) W 0.00 h 228 W/m 10.7 C 17.7 C 18.4 km/h (3 Bft)
10.09.2007 16:00 18.1 C 57 % 1015.9 hPa 0.0 l/m 14.7 km/h (3 Bft) W 0.00 h 219 W/m 9.5 C 18.1 C 22.3 km/h (4 Bft)
10.09.2007 17:00 18.6 C 55 % 1015.7 hPa 0.0 l/m 16.6 km/h (3 Bft) W 0.70 h 293 W/m 9.4 C 18.6 C 24.9 km/h (4 Bft)
10.09.2007 18:00 17.5 C 58 % 1016.3 hPa 0.0 l/m 17.8 km/h (3 Bft) W 0.20 h 83 W/m 9.1 C 17.5 C 26.4 km/h (4 Bft)
10.09.2007 19:00 16.7 C 62 % 1016.4 hPa 0.0 l/m 12.9 km/h (3 Bft) W 0.22 h 32 W/m 9.4 C 16.7 C 19.1 km/h (3 Bft)
10.09.2007 20:00 16.3 C 64 % 1016.5 hPa 0.0 l/m 9.9 km/h (2 Bft) W 0.00 h 0 W/m 9.5 C 16.3 C 15.5 km/h (3 Bft)
10.09.2007 21:00 16.3 C 65 % 1016.9 hPa 0.0 l/m 9.0 km/h (2 Bft) W 0.00 h 0 W/m 9.7 C 16.3 C 14.1 km/h (3 Bft)
10.09.2007 22:00 16.2 C 66 % 1016.7 hPa 0.0 l/m 10.6 km/h (2 Bft) W 0.00 h 0 W/m 9.8 C 16.2 C 16.9 km/h (3 Bft)
10.09.2007 23:00 15.9 C 70 % 1016.4 hPa 0.0 l/m 13.5 km/h (3 Bft) W 0.00 h 0 W/m 10.3 C 15.9 C 20.5 km/h (4 Bft)
11.09.2007 00:00 15.1 C 78 % 1016.5 hPa 0.4 l/m 12.0 km/h (2 Bft) W 0.00 h 0 W/m 11.1 C 15.1 C 18.8 km/h (3 Bft)
11.09.2007 01:00 13.6 C 89 % 1016.3 hPa 0.0 l/m 7.2 km/h (2 Bft) W 0.00 h 0 W/m 11.8 C 13.6 C 10.4 km/h (2 Bft)
11.09.2007 02:00 14.1 C 84 % 1016.1 hPa 0.0 l/m 11.2 km/h (2 Bft) W 0.00 h 0 W/m 11.4 C 14.1 C 17.2 km/h (3 Bft)
11.09.2007 03:00 12.8 C 90 % 1016.9 hPa 1.6 l/m 10.9 km/h (2 Bft) W-NW 0.00 h 0 W/m 11.2 C 12.8 C 15.8 km/h (3 Bft)
11.09.2007 04:00 10.9 C 93 % 1017.3 hPa 0.0 l/m 5.4 km/h (1 Bft) W 0.00 h 0 W/m 9.7 C 10.9 C 8.8 km/h (2 Bft)
11.09.2007 05:00 10.5 C 92 % 1017.9 hPa 0.0 l/m 2.9 km/h (1 Bft) O-SO 0.00 h 0 W/m 9.1 C 10.5 C 4.6 km/h (1 Bft)
11.09.2007 06:00 9.6 C 95 % 1018.8 hPa 0.0 l/m 1.1 km/h (1 Bft) O-SO 0.00 h 0 W/m 8.8 C 9.6 C 2.5 km/h (1 Bft)
11.09.2007 07:00 9.9 C 95 % 1019.5 hPa 0.0 l/m 0.2 km/h (0 Bft) SO 0.10 h 38 W/m 9.2 C 9.9 C 0.8 km/h (0 Bft)
11.09.2007 08:00 11.0 C 92 % 1020.0 hPa 0.0 l/m 1.5 km/h (1 Bft) N-NO 0.98 h 182 W/m 9.7 C 11.0 C 3.6 km/h (1 Bft)
11.09.2007 09:00 13.0 C 82 % 1020.4 hPa 0.0 l/m 0.7 km/h (0 Bft) W-NW 0.93 h 394 W/m 9.9 C 13.0 C 1.8 km/h (1 Bft)
11.09.2007 10:00 14.4 C 71 % 1020.6 hPa 0.0 l/m 2.0 km/h (1 Bft) N-NW 0.72 h 460 W/m 9.1 C 14.4 C 3.9 km/h (1 Bft)
11.09.2007 11:00 14.1 C 69 % 1021.0 hPa 0.0 l/m 2.3 km/h (1 Bft) NW 0.02 h 213 W/m 8.5 C 14.1 C 4.4 km/h (1 Bft)
11.09.2007 12:00 14.3 C 68 % 1021.1 hPa 0.0 l/m 1.7 km/h (1 Bft) W-NW 0.00 h 232 W/m 8.4 C 14.3 C 3.2 km/h (1 Bft)
11.09.2007 13:00 15.5 C 62 % 1021.0 hPa 0.0 l/m 2.8 km/h (1 Bft) W 0.42 h 461 W/m 8.3 C 15.5 C 4.9 km/h (1 Bft)
11.09.2007 14:00 16.7 C 58 % 1020.8 hPa 0.0 l/m 4.9 km/h (1 Bft) N-NW 0.72 h 464 W/m 8.3 C 16.7 C 7.9 km/h (2 Bft)
11.09.2007 15:00 16.5 C 58 % 1021.1 hPa 0.0 l/m 3.0 km/h (1 Bft) N-NW 0.32 h 348 W/m 8.2 C 16.5 C 5.5 km/h (1 Bft)
11.09.2007 16:00 16.6 C 57 % 1021.3 hPa 0.0 l/m 2.0 km/h (1 Bft) N-NW 0.07 h 249 W/m 8.2 C 16.6 C 4.1 km/h (1 Bft)
11.09.2007 17:00 16.5 C 59 % 1021.6 hPa 0.0 l/m 2.6 km/h (1 Bft) W 0.17 h 188 W/m 8.4 C 16.5 C 5.0 km/h (1 Bft)
11.09.2007 18:00 15.7 C 62 % 1022.0 hPa 0.0 l/m 1.3 km/h (1 Bft) N 0.00 h 68 W/m 8.5 C 15.7 C 2.9 km/h (1 Bft)
11.09.2007 19:00 14.9 C 70 % 1022.3 hPa 0.0 l/m 1.5 km/h (1 Bft) O 0.00 h 20 W/m 9.4 C 14.9 C 2.8 km/h (1 Bft)
11.09.2007 20:00 13.1 C 81 % 1023.0 hPa 0.0 l/m 0.5 km/h (0 Bft) O 0.00 h 0 W/m 9.9 C 13.1 C 1.4 km/h (1 Bft)
11.09.2007 21:00 11.6 C 86 % 1023.7 hPa 0.0 l/m 0.5 km/h (0 Bft) O 0.00 h 0 W/m 9.4 C 11.6 C 2.2 km/h (1 Bft)
11.09.2007 22:00 10.9 C 90 % 1024.0 hPa 0.0 l/m 0.5 km/h (0 Bft) N 0.00 h 0 W/m 9.3 C 10.9 C 1.3 km/h (1 Bft)
11.09.2007 23:00 10.0 C 91 % 1024.2 hPa 0.0 l/m 0.5 km/h (0 Bft) O 0.00 h 0 W/m 8.5 C 10.0 C 1.3 km/h (1 Bft)
12.09.2007 00:00 9.2 C 93 % 1024.3 hPa 0.0 l/m 0.1 km/h (0 Bft) O 0.00 h 0 W/m 8.1 C 9.2 C 0.5 km/h (0 Bft)
12.09.2007 01:00 8.8 C 94 % 1024.4 hPa 0.0 l/m 0.1 km/h (0 Bft) O-SO 0.00 h 0 W/m 7.9 C 8.8 C 0.5 km/h (0 Bft)
12.09.2007 02:00 8.3 C 94 % 1024.2 hPa 0.0 l/m 0.1 km/h (0 Bft) O-SO 0.00 h 0 W/m 7.4 C 8.3 C 0.6 km/h (0 Bft)
12.09.2007 03:00 7.9 C 96 % 1024.2 hPa 0.0 l/m 0.0 km/h (0 Bft) O-SO 0.00 h 0 W/m 7.2 C 7.9 C 0.5 km/h (0 Bft)
12.09.2007 04:00 7.4 C 96 % 1024.0 hPa 0.0 l/m 0.1 km/h (0 Bft) O-SO 0.00 h 0 W/m 6.8 C 7.4 C 0.2 km/h (0 Bft)
12.09.2007 05:00 6.8 C 97 % 1023.8 hPa 0.2 l/m 0.1 km/h (0 Bft) NO 0.00 h 0 W/m 6.4 C 6.8 C 0.4 km/h (0 Bft)
12.09.2007 06:00 6.5 C 97 % 1023.9 hPa 0.0 l/m 0.1 km/h (0 Bft) NO 0.00 h 0 W/m 6.1 C 6.5 C 0.2 km/h (0 Bft)
12.09.2007 07:00 6.2 C 98 % 1024.1 hPa 0.0 l/m 1.2 km/h (1 Bft) O 0.05 h 23 W/m 6.0 C 6.2 C 2.1 km/h (1 Bft)
12.09.2007 08:00 8.2 C 96 % 1024.5 hPa 0.0 l/m 0.0 km/h (0 Bft) N 1.00 h 163 W/m 7.7 C 8.2 C 0.1 km/h (0 Bft)
12.09.2007 09:00 11.0 C 86 % 1024.6 hPa 0.0 l/m 0.1 km/h (0 Bft) O 1.00 h 321 W/m 8.7 C 11.0 C 0.5 km/h (0 Bft)
12.09.2007 10:00 14.1 C 77 % 1024.7 hPa 0.0 l/m 1.3 km/h (1 Bft) O-SO 1.00 h 489 W/m 10.1 C 14.1 C 3.4 km/h (1 Bft)
12.09.2007 11:00 15.8 C 72 % 1024.5 hPa 0.0 l/m 3.1 km/h (1 Bft) O-SO 0.77 h 522 W/m 10.8 C 15.8 C 6.4 km/h (2 Bft)
12.09.2007 12:00 17.6 C 63 % 1024.0 hPa 0.0 l/m 5.0 km/h (1 Bft) O-SO 1.00 h 674 W/m 10.4 C 17.6 C 9.6 km/h (2 Bft)
12.09.2007 13:00 18.9 C 57 % 1023.9 hPa 0.0 l/m 4.5 km/h (1 Bft) O-SO 0.95 h 687 W/m 10.2 C 18.9 C 8.5 km/h (2 Bft)
12.09.2007 14:00 19.7 C 52 % 1023.7 hPa 0.0 l/m 4.7 km/h (1 Bft) O-SO 0.78 h 594 W/m 9.5 C 19.7 C 8.8 km/h (2 Bft)
12.09.2007 15:00 20.0 C 50 % 1023.4 hPa 0.0 l/m 4.9 km/h (1 Bft) O-SO 0.47 h 421 W/m 9.1 C 20.0 C 9.0 km/h (2 Bft)
12.09.2007 16:00 19.6 C 54 % 1023.5 hPa 0.0 l/m 3.0 km/h (1 Bft) N-NO 0.30 h 272 W/m 10.0 C 19.6 C 6.6 km/h (2 Bft)
12.09.2007 17:00 19.3 C 55 % 1023.5 hPa 0.0 l/m 1.9 km/h (1 Bft) O-SO 0.52 h 246 W/m 10.1 C 19.3 C 4.1 km/h (1 Bft)
12.09.2007 18:00 18.6 C 57 % 1023.6 hPa 0.0 l/m 2.6 km/h (1 Bft) NO 0.48 h 99 W/m 9.9 C 18.6 C 5.9 km/h (2 Bft)
12.09.2007 19:00 17.1 C 64 % 1023.7 hPa 0.0 l/m 2.8 km/h (1 Bft) N-NO 0.13 h 25 W/m 10.3 C 17.1 C 6.0 km/h (2 Bft)
12.09.2007 20:00 14.4 C 78 % 1024.1 hPa 0.0 l/m 1.3 km/h (1 Bft) O 0.00 h 0 W/m 10.5 C 14.4 C 3.1 km/h (1 Bft)
12.09.2007 21:00 13.3 C 81 % 1024.3 hPa 0.0 l/m 0.2 km/h (0 Bft) N 0.00 h 0 W/m 10.0 C 13.3 C 1.2 km/h (1 Bft)
12.09.2007 22:00 12.2 C 85 % 1024.6 hPa 0.0 l/m 0.2 km/h (0 Bft) N-NO 0.00 h 0 W/m 9.8 C 12.2 C 0.9 km/h (0 Bft)
12.09.2007 23:00 11.2 C 90 % 1024.6 hPa 0.0 l/m 0.1 km/h (0 Bft) N 0.00 h 0 W/m 9.6 C 11.2 C 0.8 km/h (0 Bft)
13.09.2007 00:00 10.8 C 91 % 1024.7 hPa 0.0 l/m 0.2 km/h (0 Bft) W-NW 0.00 h 0 W/m 9.4 C 10.8 C 1.5 km/h (1 Bft)
13.09.2007 01:00 10.4 C 90 % 1024.6 hPa 0.0 l/m 0.2 km/h (0 Bft) W-NW 0.00 h 0 W/m 8.8 C 10.4 C 0.9 km/h (0 Bft)
13.09.2007 02:00 9.7 C 92 % 1024.4 hPa 0.0 l/m 0.1 km/h (0 Bft) W-NW 0.00 h 0 W/m 8.5 C 9.7 C 0.7 km/h (0 Bft)
13.09.2007 03:00 9.3 C 94 % 1024.2 hPa 0.0 l/m 0.4 km/h (0 Bft) W-NW 0.00 h 0 W/m 8.4 C 9.3 C 1.3 km/h (1 Bft)
13.09.2007 04:00 8.8 C 95 % 1024.0 hPa 0.0 l/m 1.1 km/h (1 Bft) O 0.00 h 0 W/m 8.1 C 8.8 C 2.1 km/h (1 Bft)
13.09.2007 05:00 8.5 C 97 % 1023.9 hPa 0.0 l/m 0.5 km/h (0 Bft) O 0.00 h 0 W/m 8.0 C 8.5 C 1.4 km/h (1 Bft)
13.09.2007 06:00 8.3 C 97 % 1024.0 hPa 0.2 l/m 0.1 km/h (0 Bft) O 0.00 h 0 W/m 7.9 C 8.3 C 0.6 km/h (0 Bft)
13.09.2007 07:00 8.2 C 98 % 1024.3 hPa 0.0 l/m 0.0 km/h (0 Bft) N 0.02 h 23 W/m 7.8 C 8.2 C 0.2 km/h (0 Bft)
13.09.2007 08:00 9.2 C 98 % 1024.5 hPa 0.0 l/m 0.0 km/h (0 Bft) N 0.00 h 88 W/m 8.9 C 9.2 C 0.0 km/h (0 Bft)
13.09.2007 09:00 11.6 C 93 % 1024.7 hPa 0.0 l/m 1.3 km/h (1 Bft) O-SO 0.02 h 186 W/m 10.6 C 11.6 C 2.4 km/h (1 Bft)
13.09.2007 10:00 13.8 C 80 % 1024.6 hPa 0.0 l/m 6.1 km/h (2 Bft) O-SO 0.80 h 432 W/m 10.5 C 13.8 C 9.2 km/h (2 Bft)
13.09.2007 11:00 15.6 C 75 % 1024.2 hPa 0.0 l/m 5.4 km/h (1 Bft) SO 1.00 h 575 W/m 11.3 C 15.6 C 8.9 km/h (2 Bft)
13.09.2007 12:00 17.4 C 71 % 1023.9 hPa 0.0 l/m 5.2 km/h (1 Bft) O-SO 1.00 h 651 W/m 12.0 C 17.4 C 8.5 km/h (2 Bft)
13.09.2007 13:00 18.5 C 65 % 1023.3 hPa 0.0 l/m 8.2 km/h (2 Bft) O-SO 1.00 h 675 W/m 11.7 C 18.5 C 12.7 km/h (3 Bft)
13.09.2007 14:00 19.6 C 60 % 1022.9 hPa 0.0 l/m 6.6 km/h (2 Bft) O-SO 0.97 h 618 W/m 11.8 C 19.6 C 11.2 km/h (2 Bft)
13.09.2007 15:00 20.3 C 57 % 1022.1 hPa 0.0 l/m 5.4 km/h (1 Bft) O-SO 0.97 h 566 W/m 11.5 C 20.3 C 8.7 km/h (2 Bft)
13.09.2007 16:00 21.0 C 55 % 1021.5 hPa 0.0 l/m 2.9 km/h (1 Bft) O-SO 1.00 h 450 W/m 11.5 C 21.0 C 5.7 km/h (1 Bft)
13.09.2007 17:00 20.9 C 54 % 1021.1 hPa 0.0 l/m 4.2 km/h (1 Bft) O-SO 1.00 h 296 W/m 11.3 C 20.9 C 6.7 km/h (2 Bft)
13.09.2007 18:00 20.1 C 57 % 1020.8 hPa 0.0 l/m 2.9 km/h (1 Bft) O-SO 0.22 h 70 W/m 11.3 C 20.1 C 4.8 km/h (1 Bft)
13.09.2007 19:00 18.3 C 68 % 1020.6 hPa 0.0 l/m 3.6 km/h (1 Bft) O-SO 0.03 h 24 W/m 12.1 C 18.3 C 4.8 km/h (1 Bft)
13.09.2007 20:00 15.7 C 79 % 1020.9 hPa 0.0 l/m 0.4 km/h (0 Bft) O 0.00 h 0 W/m 12.1 C 15.7 C 1.2 km/h (1 Bft)
13.09.2007 21:00 13.9 C 88 % 1021.3 hPa 0.0 l/m 1.0 km/h (0 Bft) O 0.00 h 0 W/m 11.9 C 13.9 C 2.0 km/h (1 Bft)
13.09.2007 22:00 12.9 C 91 % 1021.2 hPa 0.0 l/m 0.5 km/h (0 Bft) O 0.00 h 0 W/m 11.4 C 12.9 C 1.4 km/h (1 Bft)
13.09.2007 23:00 12.1 C 94 % 1021.2 hPa 0.0 l/m 0.9 km/h (0 Bft) O 0.00 h 0 W/m 11.1 C 12.1 C 1.8 km/h (1 Bft)
14.09.2007 00:00 11.5 C 94 % 1021.1 hPa 0.0 l/m 1.3 km/h (1 Bft) O 0.00 h 0 W/m 10.6 C 11.5 C 2.6 km/h (1 Bft)
14.09.2007 01:00 10.9 C 96 % 1020.7 hPa 0.0 l/m 1.0 km/h (0 Bft) O 0.00 h 0 W/m 10.4 C 10.9 C 2.1 km/h (1 Bft)
14.09.2007 02:00 10.4 C 97 % 1020.5 hPa 0.0 l/m 0.4 km/h (0 Bft) O-SO 0.00 h 0 W/m 9.9 C 10.4 C 1.2 km/h (1 Bft)
14.09.2007 03:00 9.9 C 97 % 1020.3 hPa 0.0 l/m 1.1 km/h (1 Bft) O-SO 0.00 h 0 W/m 9.5 C 9.9 C 2.1 km/h (1 Bft)
14.09.2007 04:00 9.6 C 98 % 1020.1 hPa 0.0 l/m 1.0 km/h (0 Bft) O-SO 0.00 h 0 W/m 9.2 C 9.6 C 1.7 km/h (1 Bft)
14.09.2007 05:00 9.6 C 98 % 1020.0 hPa 0.0 l/m 0.2 km/h (0 Bft) O-SO 0.00 h 0 W/m 9.3 C 9.6 C 0.6 km/h (0 Bft)
14.09.2007 06:00 10.1 C 99 % 1020.0 hPa 0.0 l/m 0.7 km/h (0 Bft) O-SO 0.00 h 0 W/m 10.0 C 10.1 C 2.1 km/h (1 Bft)
14.09.2007 07:00 10.8 C 100 % 1020.4 hPa 0.0 l/m 0.0 km/h (0 Bft) N 0.00 h 16 W/m 10.8 C 10.8 C 0.2 km/h (0 Bft)
14.09.2007 08:00 11.1 C 99 % 1020.6 hPa 0.0 l/m 0.0 km/h (0 Bft) N 0.00 h 53 W/m 11.0 C 11.1 C 0.5 km/h (0 Bft)
14.09.2007 09:00 12.4 C 95 % 1020.7 hPa 0.0 l/m 0.2 km/h (0 Bft) O-SO 0.03 h 145 W/m 11.6 C 12.4 C 0.9 km/h (0 Bft)
14.09.2007 10:00 14.9 C 87 % 1020.7 hPa 0.0 l/m 0.6 km/h (0 Bft) O 0.82 h 400 W/m 12.7 C 14.9 C 2.1 km/h (1 Bft)
14.09.2007 11:00 18.4 C 78 % 1020.1 hPa 0.0 l/m 2.0 km/h (1 Bft) N 1.00 h 536 W/m 14.5 C 18.4 C 4.2 km/h (1 Bft)
14.09.2007 12:00 21.4 C 68 % 1019.4 hPa 0.0 l/m 3.7 km/h (1 Bft) S 1.00 h 611 W/m 15.3 C 21.4 C 7.4 km/h (2 Bft)
14.09.2007 13:00 22.4 C 65 % 1019.2 hPa 0.0 l/m 2.5 km/h (1 Bft) W 1.00 h 637 W/m 15.4 C 22.4 C 4.7 km/h (1 Bft)
14.09.2007 14:00 23.5 C 60 % 1019.1 hPa 0.0 l/m 8.1 km/h (2 Bft) W-SW 0.88 h 560 W/m 15.2 C 23.5 C 13.8 km/h (3 Bft)
14.09.2007 15:00 24.3 C 58 % 1018.6 hPa 0.0 l/m 9.3 km/h (2 Bft) W-SW 1.00 h 534 W/m 15.4 C 24.3 C 15.4 km/h (3 Bft)
14.09.2007 16:00 24.3 C 57 % 1018.4 hPa 0.0 l/m 10.2 km/h (2 Bft) W 0.93 h 397 W/m 15.2 C 24.3 C 15.8 km/h (3 Bft)
14.09.2007 17:00 23.8 C 57 % 1018.2 hPa 0.0 l/m 12.3 km/h (3 Bft) W 0.87 h 261 W/m 14.7 C 23.8 C 18.6 km/h (3 Bft)
14.09.2007 18:00 22.5 C 59 % 1018.5 hPa 0.0 l/m 12.7 km/h (3 Bft) W 0.00 h 65 W/m 14.0 C 22.5 C 19.1 km/h (3 Bft)
14.09.2007 19:00 21.2 C 63 % 1018.8 hPa 0.0 l/m 11.3 km/h (2 Bft) W 0.03 h 25 W/m 13.8 C 21.2 C 17.2 km/h (3 Bft)
14.09.2007 20:00 19.8 C 68 % 1019.5 hPa 0.0 l/m 8.5 km/h (2 Bft) W 0.00 h 0 W/m 13.8 C 19.8 C 12.6 km/h (3 Bft)
14.09.2007 21:00 18.4 C 75 % 1020.3 hPa 0.0 l/m 3.8 km/h (1 Bft) W-NW 0.00 h 0 W/m 13.8 C 18.4 C 5.9 km/h (2 Bft)
14.09.2007 22:00 16.8 C 81 % 1020.4 hPa 0.0 l/m 1.5 km/h (1 Bft) O 0.00 h 0 W/m 13.6 C 16.8 C 3.3 km/h (1 Bft)
14.09.2007 23:00 15.9 C 86 % 1020.6 hPa 0.0 l/m 3.4 km/h (1 Bft) O 0.00 h 0 W/m 13.5 C 15.9 C 5.2 km/h (1 Bft)
15.09.2007 00:00 15.0 C 89 % 1021.0 hPa 0.0 l/m 1.9 km/h (1 Bft) O 0.00 h 0 W/m 13.2 C 15.0 C 3.2 km/h (1 Bft)
15.09.2007 01:00 14.3 C 93 % 1021.4 hPa 0.0 l/m 0.1 km/h (0 Bft) O 0.00 h 0 W/m 13.1 C 14.3 C 0.4 km/h (0 Bft)
15.09.2007 02:00 13.7 C 95 % 1021.7 hPa 0.0 l/m 0.2 km/h (0 Bft) O 0.00 h 0 W/m 13.0 C 13.7 C 0.5 km/h (0 Bft)
15.09.2007 03:00 13.2 C 96 % 1021.7 hPa 0.0 l/m 0.2 km/h (0 Bft) O 0.00 h 0 W/m 12.7 C 13.2 C 0.4 km/h (0 Bft)
15.09.2007 04:00 12.8 C 97 % 1021.9 hPa 0.0 l/m 0.4 km/h (0 Bft) O 0.00 h 0 W/m 12.3 C 12.8 C 0.8 km/h (0 Bft)
15.09.2007 05:00 12.4 C 98 % 1021.9 hPa 0.0 l/m 0.3 km/h (0 Bft) O 0.00 h 0 W/m 12.1 C 12.4 C 0.7 km/h (0 Bft)
15.09.2007 06:00 12.5 C 99 % 1022.3 hPa 0.0 l/m 0.0 km/h (0 Bft) N 0.00 h 0 W/m 12.3 C 12.5 C 0.1 km/h (0 Bft)
15.09.2007 07:00 12.5 C 98 % 1023.1 hPa 0.0 l/m 0.0 km/h (0 Bft) N 0.00 h 20 W/m 12.2 C 12.5 C 0.0 km/h (0 Bft)
15.09.2007 08:00 13.3 C 96 % 1023.5 hPa 0.0 l/m 0.1 km/h (0 Bft) O 0.30 h 113 W/m 12.6 C 13.3 C 0.4 km/h (0 Bft)
15.09.2007 09:00 14.9 C 88 % 1023.7 hPa 0.0 l/m 0.2 km/h (0 Bft) O 0.47 h 248 W/m 13.0 C 14.9 C 0.7 km/h (0 Bft)
15.09.2007 10:00 17.0 C 81 % 1024.0 hPa 0.0 l/m 1.2 km/h (1 Bft) N-NW 0.70 h 364 W/m 13.7 C 17.0 C 2.6 km/h (1 Bft)
15.09.2007 11:00 19.3 C 73 % 1023.9 hPa 0.0 l/m 1.6 km/h (1 Bft) NW 0.98 h 550 W/m 14.4 C 19.3 C 3.4 km/h (1 Bft)
15.09.2007 12:00 21.0 C 61 % 1023.5 hPa 0.0 l/m 1.8 km/h (1 Bft) S-SO 0.97 h 615 W/m 13.0 C 21.0 C 3.8 km/h (1 Bft)
15.09.2007 13:00 21.5 C 57 % 1023.2 hPa 0.0 l/m 2.3 km/h (1 Bft) W-NW 1.00 h 637 W/m 12.5 C 21.5 C 4.4 km/h (1 Bft)
15.09.2007 14:00 22.4 C 52 % 1022.9 hPa 0.0 l/m 3.4 km/h (1 Bft) W-NW 1.00 h 545 W/m 12.1 C 22.4 C 5.5 km/h (1 Bft)
15.09.2007 15:00 23.3 C 51 % 1022.3 hPa 0.0 l/m 3.9 km/h (1 Bft) W-NW 1.00 h 528 W/m 12.5 C 23.3 C 6.4 km/h (2 Bft)
15.09.2007 16:00 23.1 C 51 % 1021.9 hPa 0.0 l/m 3.4 km/h (1 Bft) N-NO 0.82 h 398 W/m 12.5 C 23.1 C 7.2 km/h (2 Bft)
15.09.2007 17:00 22.4 C 53 % 1021.6 hPa 0.0 l/m 1.7 km/h (1 Bft) NO 1.00 h 283 W/m 12.4 C 22.4 C 3.8 km/h (1 Bft)
15.09.2007 18:00 21.1 C 58 % 1021.3 hPa 0.0 l/m 1.2 km/h (1 Bft) O 0.77 h 114 W/m 12.4 C 21.1 C 3.1 km/h (1 Bft)
15.09.2007 19:00 18.7 C 70 % 1021.5 hPa 0.0 l/m 0.6 km/h (0 Bft) O-SO 0.02 h 14 W/m 13.1 C 18.7 C 1.4 km/h (1 Bft)
15.09.2007 20:00 16.7 C 79 % 1022.0 hPa 0.0 l/m 0.2 km/h (0 Bft) O-SO 0.00 h 0 W/m 13.1 C 16.7 C 1.0 km/h (0 Bft)
15.09.2007 21:00 15.1 C 85 % 1022.3 hPa 0.0 l/m 1.2 km/h (1 Bft) NO 0.00 h 0 W/m 12.6 C 15.1 C 2.6 km/h (1 Bft)
15.09.2007 22:00 14.1 C 89 % 1022.4 hPa 0.0 l/m 0.6 km/h (0 Bft) O 0.00 h 0 W/m 12.2 C 14.1 C 1.2 km/h (1 Bft)
15.09.2007 23:00 13.1 C 92 % 1022.2 hPa 0.0 l/m 0.8 km/h (0 Bft) O 0.00 h 0 W/m 11.9 C 13.1 C 1.8 km/h (1 Bft)
16.09.2007 00:00 12.6 C 94 % 1022.0 hPa 0.0 l/m 0.4 km/h (0 Bft) O 0.00 h 0 W/m 11.6 C 12.6 C 1.2 km/h (1 Bft)
16.09.2007 01:00 12.0 C 96 % 1021.8 hPa 0.0 l/m 0.1 km/h (0 Bft) O 0.00 h 0 W/m 11.3 C 12.0 C 0.5 km/h (0 Bft)
16.09.2007 02:00 11.4 C 97 % 1021.5 hPa 0.0 l/m 0.0 km/h (0 Bft) N 0.00 h 0 W/m 10.9 C 11.4 C 0.3 km/h (0 Bft)
16.09.2007 03:00 11.0 C 97 % 1021.3 hPa 0.0 l/m 0.4 km/h (0 Bft) O 0.00 h 0 W/m 10.6 C 11.0 C 1.6 km/h (1 Bft)
16.09.2007 04:00 10.5 C 97 % 1020.9 hPa 0.0 l/m 0.7 km/h (0 Bft) O 0.00 h 0 W/m 10.1 C 10.5 C 1.7 km/h (1 Bft)
16.09.2007 05:00 10.1 C 98 % 1021.0 hPa 0.0 l/m 0.2 km/h (0 Bft) O 0.00 h 0 W/m 9.8 C 10.1 C 0.8 km/h (0 Bft)
16.09.2007 06:00 10.1 C 99 % 1021.0 hPa 0.0 l/m 0.0 km/h (0 Bft) N 0.00 h 0 W/m 9.9 C 10.1 C 0.3 km/h (0 Bft)
16.09.2007 07:00 10.0 C 100 % 1021.2 hPa 0.0 l/m 0.8 km/h (0 Bft) O 0.00 h 24 W/m 9.9 C 10.0 C 1.7 km/h (1 Bft)
16.09.2007 08:00 10.2 C 100 % 1021.4 hPa 0.0 l/m 0.3 km/h (0 Bft) O 0.05 h 89 W/m 10.2 C 10.2 C 1.1 km/h (0 Bft)
16.09.2007 09:00 12.0 C 98 % 1021.2 hPa 0.0 l/m 1.4 km/h (1 Bft) O-SO 0.93 h 286 W/m 11.7 C 12.0 C 2.7 km/h (1 Bft)
16.09.2007 10:00 14.7 C 86 % 1021.1 hPa 0.0 l/m 0.6 km/h (0 Bft) SW 1.00 h 426 W/m 12.4 C 14.7 C 2.2 km/h (1 Bft)
16.09.2007 11:00 17.3 C 78 % 1020.5 hPa 0.0 l/m 1.8 km/h (1 Bft) S-SO 1.00 h 542 W/m 13.4 C 17.3 C 4.0 km/h (1 Bft)
16.09.2007 12:00 19.2 C 73 % 1019.8 hPa 0.0 l/m 2.3 km/h (1 Bft) S-SO 1.00 h 618 W/m 14.2 C 19.2 C 4.6 km/h (1 Bft)
16.09.2007 13:00 21.6 C 66 % 1019.0 hPa 0.0 l/m 3.0 km/h (1 Bft) SO 1.00 h 637 W/m 14.9 C 21.6 C 5.5 km/h (1 Bft)
16.09.2007 14:00 23.1 C 61 % 1018.0 hPa 0.0 l/m 3.4 km/h (1 Bft) S-SO 1.00 h 599 W/m 15.3 C 23.1 C 6.4 km/h (2 Bft)
16.09.2007 15:00 24.2 C 58 % 1017.1 hPa 0.0 l/m 3.1 km/h (1 Bft) W 1.00 h 534 W/m 15.5 C 24.2 C 5.5 km/h (1 Bft)
16.09.2007 16:00 24.8 C 55 % 1016.4 hPa 0.0 l/m 3.2 km/h (1 Bft) W-SW 1.00 h 425 W/m 15.2 C 24.8 C 5.9 km/h (2 Bft)
16.09.2007 17:00 24.9 C 50 % 1015.7 hPa 0.0 l/m 3.3 km/h (1 Bft) W-SW 1.00 h 281 W/m 13.9 C 24.9 C 6.0 km/h (2 Bft)
16.09.2007 18:00 23.6 C 55 % 1015.4 hPa 0.0 l/m 0.8 km/h (0 Bft) W-SW 1.00 h 124 W/m 13.9 C 23.6 C 2.5 km/h (1 Bft)
16.09.2007 19:00 20.8 C 70 % 1015.5 hPa 0.0 l/m 1.4 km/h (1 Bft) O-SO 0.08 h 21 W/m 15.1 C 20.8 C 2.3 km/h (1 Bft)
16.09.2007 20:00 18.0 C 79 % 1015.8 hPa 0.0 l/m 3.4 km/h (1 Bft) O-SO 0.00 h 0 W/m 14.3 C 18.0 C 4.8 km/h (1 Bft)
16.09.2007 21:00 16.5 C 84 % 1016.2 hPa 0.0 l/m 4.0 km/h (1 Bft) O-SO 0.00 h 0 W/m 13.7 C 16.5 C 5.3 km/h (1 Bft)
16.09.2007 22:00 15.3 C 89 % 1016.1 hPa 0.0 l/m 2.3 km/h (1 Bft) O-SO 0.00 h 0 W/m 13.5 C 15.3 C 3.2 km/h (1 Bft)
16.09.2007 23:00 14.6 C 92 % 1016.1 hPa 0.0 l/m 0.3 km/h (0 Bft) O-SO 0.00 h 0 W/m 13.3 C 14.6 C 0.9 km/h (0 Bft)
Min-Datum _ 12.09.07 15.09.07 16.09.07 - 10.09.07 - - - 12.09.07 12.09.07 10.09.07
_ Min-Zeit 07:06 16:02 18:30 - 00:01 - - - 07:06 07:06 00:11
Minimum _ 6.0 C 45 % 1015.3 hPa - 0.0 km/h (0 Bft) - - - 5.6 C 6.0 C 0.0 km/h (0 Bft)
Max-Datum _ 16.09.07 14.09.07 13.09.07 11.09.07 10.09.07 - 10.09.07 11.09.07 16.09.07 16.09.07 10.09.07
_ Max-Zeit 17:09 06:39 00:30 03:12 18:36 - 07:07 13:47 15:03 16:17 18:36
Maximum _ 25.4 C 100 % 1024.9 hPa 1.6 l/m 32.2 km/h
W (5 Bft)
- 0.02 h 1060 W/m 16.9 C 25.4 C 46.9 km/h
W (6 Bft)
Durchschnitt _ 14.8 C 79 % 1020.9 hPa #2.6 l/m 2.9 km/h (1 Bft) W #53:54 h 326 W/m 10.9 C 14.8 C 5.1 km/h (1 Bft)
© Kaiko 2007